Gorjacinsk, Russia
Current Conditions -  °F | °C
As of 9:30 PM on Thursday 23 Oct 2014 (Local Time) from UIUU Reporting Station
Overcast Overcast  
Wind Chill: 34°   Ceiling: 10000
Heat Index: 34°   Visibility: 6mi
Dew Point: 30°   Wind: 2mph
Humidity: 87%   Direction: 200°SSW
Pressure: 29.83"   Gusts: NA
Location:  52.98°N, 108.28°E
Report Text: UIUU 231330Z 20001MPS 9999 SCT040CB OVC100 01/M01 Q1010 NOSIGRMK QFE713/0951 26CLRD60
Loading
Personal Weather Stations






























Interactive Weather Map
Tropical Storm Tracking
New forecast layout! Learn more

10-Day Weather Forecast

Advertisements
Track Severe Weather on mobile